Time;durP1;ratioP1;P1;durP2;ratioP2;P2;SDS_P1;SDS_P2;PMS_P1;PMS_P2;Temp;Humidity;BMP_temperature;BMP_pressure;BME280_temperature;BME280_humidity;BME280_pressure;Samples;Min_cycle;Max_cycle;Signal;HPM_P1;HPM_P2
2022/08/07 00:00:31;;;;;;;;;7.75;7.75;;;;;18.34;42.36;101555.19;5076193;27;45278;-78
2022/08/07 00:02:57;;;;;;;;;5.25;5.25;;;;;18.29;42.63;101542.13;5076282;27;45377;-77
2022/08/07 00:05:23;;;;;;;;;7.00;7.00;;;;;18.24;42.88;101547.72;5076137;27;45370;-79
2022/08/07 00:07:49;;;;;;;;;5.00;5.00;;;;;18.20;42.97;101537.31;5076466;27;45303;-78
2022/08/07 00:10:14;;;;;;;;;5.50;5.25;;;;;18.19;43.19;101544.47;5076269;27;45693;-78
2022/08/07 00:12:42;;;;;;;;;5.50;5.50;;;;;18.17;43.14;101543.69;5076186;27;45361;-78
2022/08/07 00:15:09;;;;;;;;;5.00;5.00;;;;;18.13;43.16;101543.94;5074940;28;46077;-77
2022/08/07 00:17:34;;;;;;;;;4.75;4.75;;;;;18.03;43.31;101535.63;5076595;28;45659;-79
2022/08/07 00:20:00;;;;;;;;;3.75;3.75;;;;;18.00;43.48;101544.66;5076660;27;46119;-77
2022/08/07 00:22:25;;;;;;;;;5.25;5.25;;;;;17.89;43.65;101536.38;5076393;27;45316;-78
2022/08/07 00:24:51;;;;;;;;;4.00;4.00;;;;;17.87;43.87;101539.09;5077524;27;45210;-81
2022/08/07 00:27:16;;;;;;;;;7.25;7.25;;;;;17.82;44.19;101535.84;5077859;27;45371;-80
2022/08/07 00:29:42;;;;;;;;;8.00;8.00;;;;;17.77;44.24;101538.78;5078002;28;45442;-79
2022/08/07 00:32:07;;;;;;;;;9.00;9.00;;;;;17.67;44.40;101521.59;5078507;28;45297;-79
2022/08/07 00:34:33;;;;;;;;;7.25;7.25;;;;;17.65;44.50;101534.13;5083046;27;45362;-78
2022/08/07 00:36:58;;;;;;;;;5.00;5.00;;;;;17.46;44.56;101497.88;5081108;27;45600;-77
2022/08/07 00:39:23;;;;;;;;;7.00;7.00;;;;;17.49;44.67;101510.16;5078813;27;45442;-81
2022/08/07 00:41:54;;;;;;;;;7.00;7.00;;;;;17.52;45.06;101524.16;5077771;27;45495;-80
2022/08/07 00:44:20;;;;;;;;;6.25;6.25;;;;;17.37;45.15;101504.56;5079235;28;45248;-77
2022/08/07 00:46:46;;;;;;;;;8.50;8.50;;;;;17.34;45.39;101501.19;5082576;27;44989;-80
2022/08/07 00:49:11;;;;;;;;;7.25;7.25;;;;;17.34;45.45;101512.72;5081625;27;45366;-75
2022/08/07 00:51:37;;;;;;;;;6.25;6.25;;;;;17.22;45.44;101500.09;5083589;27;45251;-76
2022/08/07 00:54:03;;;;;;;;;6.00;6.00;;;;;17.27;45.57;101513.13;5093581;27;45222;-76
2022/08/07 00:56:28;;;;;;;;;5.75;5.75;;;;;17.23;45.99;101517.75;5081691;27;45314;-73
2022/08/07 00:58:54;;;;;;;;;4.00;4.00;;;;;17.19;46.05;101514.38;5076406;27;46339;-75
2022/08/07 01:01:21;;;;;;;;;5.00;5.00;;;;;17.10;46.12;101504.25;5077328;27;45434;-74
2022/08/07 01:03:48;;;;;;;;;5.00;5.00;;;;;17.04;46.06;101504.56;5078729;27;45329;-74
2022/08/07 01:06:15;;;;;;;;;5.00;5.00;;;;;16.98;46.56;101500.44;5078712;27;45459;-74
2022/08/07 01:08:41;;;;;;;;;6.50;6.50;;;;;16.97;46.55;101498.75;5078485;28;46404;-75
2022/08/07 01:11:07;;;;;;;;;5.00;5.00;;;;;16.89;46.74;101501.75;5078218;27;45331;-75
2022/08/07 01:13:34;;;;;;;;;5.50;5.50;;;;;16.84;47.30;101489.63;5077092;28;45524;-82
2022/08/07 01:16:01;;;;;;;;;5.00;5.00;;;;;16.78;46.85;101491.66;5079018;27;45444;-75
2022/08/07 01:18:28;;;;;;;;;7.00;7.00;;;;;16.69;47.28;101484.19;5078392;27;45527;-75
2022/08/07 01:21:10;;;;;;;;;5.00;5.00;;;;;16.75;47.66;101494.47;5078277;27;45399;-76
2022/08/07 01:23:37;;;;;;;;;6.50;6.50;;;;;16.72;46.99;101502.63;5078794;27;45412;-75
2022/08/07 01:26:03;;;;;;;;;4.50;4.50;;;;;16.68;47.63;101489.59;5078623;27;45267;-77
2022/08/07 01:28:30;;;;;;;;;5.50;5.50;;;;;16.68;47.53;101490.44;5079425;27;45429;-76
2022/08/07 01:30:57;;;;;;;;;4.75;4.75;;;;;16.64;47.57;101494.19;5079307;27;45278;-80
2022/08/07 01:33:23;;;;;;;;;4.75;4.75;;;;;16.62;47.77;101485.44;5080169;27;45373;-81
2022/08/07 01:35:49;;;;;;;;;7.00;7.00;;;;;16.59;47.88;101478.50;5079792;27;45540;-79
2022/08/07 01:38:16;;;;;;;;;5.75;5.75;;;;;16.62;47.41;101482.78;5079173;27;45288;-78
2022/08/07 01:40:43;;;;;;;;;6.00;6.00;;;;;16.61;48.01;101492.56;5078867;27;45424;-80
2022/08/07 01:43:09;;;;;;;;;6.00;6.00;;;;;16.58;47.73;101495.38;5079248;27;45324;-78
2022/08/07 01:45:35;;;;;;;;;5.00;5.00;;;;;16.56;48.00;101480.44;5079946;27;45615;-77
2022/08/07 01:48:01;;;;;;;;;5.75;5.75;;;;;16.57;48.37;101488.34;5079046;27;46427;-78
2022/08/07 01:50:29;;;;;;;;;5.25;5.25;;;;;16.55;48.35;101486.69;5078951;27;45356;-78
2022/08/07 01:52:57;;;;;;;;;6.00;6.00;;;;;16.54;48.08;101493.81;5077085;27;45321;-75
2022/08/07 01:55:31;;;;;;;;;5.00;5.00;;;;;16.53;48.30;101491.22;5076837;28;45589;-73
2022/08/07 01:57:59;;;;;;;;;5.00;5.00;;;;;16.53;48.53;101492.09;5077675;27;45367;-73
2022/08/07 02:00:28;;;;;;;;;5.00;5.00;;;;;16.53;48.62;101488.56;5077622;27;45232;-77
2022/08/07 02:02:58;;;;;;;;;6.00;6.00;;;;;16.50;48.40;101492.25;5078020;28;45889;-75
2022/08/07 02:05:34;;;;;;;;;4.00;4.00;;;;;16.52;48.81;101492.16;5078210;28;45408;-75
2022/08/07 02:08:04;;;;;;;;;6.00;6.00;;;;;16.48;48.90;101487.00;5077434;27;46325;-72
2022/08/07 02:10:31;;;;;;;;;4.00;4.00;;;;;16.46;48.84;101496.84;5076769;27;45394;-73
2022/08/07 02:12:59;;;;;;;;;4.00;4.00;;;;;16.43;48.67;101482.84;5077298;27;45577;-71
2022/08/07 02:15:26;;;;;;;;;4.75;4.75;;;;;16.40;49.08;101502.47;5076312;27;45479;-75
2022/08/07 02:17:54;;;;;;;;;5.00;5.00;;;;;16.38;49.35;101495.50;5077233;27;45327;-73
2022/08/07 02:20:21;;;;;;;;;5.00;5.00;;;;;16.34;49.29;101494.81;5077441;27;45795;-76
2022/08/07 02:22:48;;;;;;;;;4.75;4.75;;;;;16.32;49.08;101504.63;5076563;27;45420;-78
2022/08/07 02:25:16;;;;;;;;;5.00;5.00;;;;;16.29;49.47;101495.03;5079266;27;45398;-78
2022/08/07 02:27:44;;;;;;;;;5.00;5.00;;;;;16.28;49.80;101498.59;5077588;27;46292;-78
2022/08/07 02:30:11;;;;;;;;;5.00;5.00;;;;;16.25;49.63;101505.88;5078057;27;45407;-78
2022/08/07 02:32:36;;;;;;;;;4.75;4.75;;;;;16.18;49.43;101489.38;5076538;27;45429;-78
2022/08/07 02:35:04;;;;;;;;;4.25;4.25;;;;;16.13;49.78;101491.41;5077956;27;45400;-78
2022/08/07 02:37:33;;;;;;;;;3.50;3.50;;;;;16.14;49.92;101490.47;5079226;28;46179;-78
2022/08/07 02:40:00;;;;;;;;;5.00;4.50;;;;;16.12;50.31;101490.56;5078958;27;45206;-78
2022/08/07 02:42:27;;;;;;;;;4.50;4.50;;;;;16.02;50.20;101470.72;5080775;27;45296;-79
2022/08/07 02:44:54;;;;;;;;;5.00;5.00;;;;;16.06;50.43;101477.59;5081876;27;45487;-79
2022/08/07 02:47:21;;;;;;;;;3.75;3.75;;;;;16.00;50.71;101472.59;5077095;28;45385;-78
2022/08/07 02:49:46;;;;;;;;;4.00;4.00;;;;;16.01;50.94;101482.28;5077365;27;45192;-77
2022/08/07 02:52:17;;;;;;;;;4.00;4.00;;;;;16.01;50.46;101488.41;5077346;27;45182;-77
2022/08/07 02:54:44;;;;;;;;;4.50;4.50;;;;;15.96;50.81;101468.38;5077327;27;45326;-78
2022/08/07 02:57:14;;;;;;;;;4.25;4.25;;;;;15.96;50.85;101476.31;5077678;27;46637;-79
2022/08/07 02:59:44;;;;;;;;;6.00;4.50;;;;;15.95;51.15;101467.50;5077327;27;45363;-78
2022/08/07 03:02:11;;;;;;;;;3.50;3.50;;;;;15.91;50.99;101465.94;5078044;27;45393;-78
2022/08/07 03:04:39;;;;;;;;;5.00;5.00;;;;;15.86;51.25;101468.75;5078343;27;45520;-77
2022/08/07 03:07:06;;;;;;;;;2.25;2.25;;;;;15.77;51.48;101458.59;5077647;27;45432;-77
2022/08/07 03:09:32;;;;;;;;;3.00;3.00;;;;;15.83;51.43;101468.06;5079953;27;45322;-78
2022/08/07 03:11:58;;;;;;;;;5.00;5.00;;;;;15.76;51.75;101465.69;5075824;27;45343;-78
2022/08/07 03:14:26;;;;;;;;;4.25;4.25;;;;;15.77;51.69;101464.78;5076649;27;45465;-78
2022/08/07 03:16:51;;;;;;;;;3.50;3.50;;;;;15.61;51.94;101437.25;5076613;28;46365;-74
2022/08/07 03:19:17;;;;;;;;;4.00;4.00;;;;;15.70;51.50;101455.38;5076951;27;45321;-75
2022/08/07 03:21:42;;;;;;;;;3.25;3.25;;;;;15.67;51.69;101454.66;5076611;27;45264;-72
2022/08/07 03:24:08;;;;;;;;;5.25;5.25;;;;;15.71;51.82;101466.84;5076870;27;45520;-71
2022/08/07 03:26:34;;;;;;;;;4.25;4.25;;;;;15.66;52.03;101463.56;5076191;27;45687;-72
2022/08/07 03:29:02;;;;;;;;;4.25;4.25;;;;;15.62;51.92;101461.03;5074773;28;45400;-71
2022/08/07 03:31:29;;;;;;;;;5.25;5.25;;;;;15.59;52.26;101458.53;5076303;27;45345;-71
2022/08/07 03:33:58;;;;;;;;;5.00;5.00;;;;;15.58;52.23;101456.81;5076311;27;45373;-71
2022/08/07 03:36:25;;;;;;;;;3.50;3.50;;;;;15.56;52.65;101464.00;5076034;27;45413;-71
2022/08/07 03:38:54;;;;;;;;;5.50;5.50;;;;;15.53;52.59;101458.81;5076049;27;45454;-72
2022/08/07 03:41:19;;;;;;;;;5.25;5.25;;;;;15.51;52.91;101463.34;5076623;27;45457;-74
2022/08/07 03:43:45;;;;;;;;;4.00;4.00;;;;;15.46;53.14;101471.53;5079507;27;45262;-72
2022/08/07 03:46:13;;;;;;;;;5.25;5.25;;;;;15.43;53.23;101465.50;5091322;27;45325;-70
2022/08/07 03:48:39;;;;;;;;;5.00;5.00;;;;;15.44;53.05;101472.53;5078878;27;45645;-71
2022/08/07 03:51:06;;;;;;;;;4.00;4.00;;;;;15.43;53.07;101468.16;5075812;27;45252;-72
2022/08/07 03:53:32;;;;;;;;;4.25;4.25;;;;;15.42;53.00;101472.59;5075855;28;45350;-70
2022/08/07 03:55:58;;;;;;;;;4.75;4.75;;;;;15.40;53.22;101466.50;5075469;27;46173;-71
2022/08/07 03:58:25;;;;;;;;;1.00;1.00;;;;;15.38;53.38;101472.81;5076026;27;45953;-72
2022/08/07 04:00:53;;;;;;;;;6.00;6.00;;;;;15.33;53.50;101473.88;5075984;27;45185;-71
2022/08/07 04:03:19;;;;;;;;;4.50;4.50;;;;;15.34;53.73;101475.59;5076176;27;45448;-72
2022/08/07 04:05:45;;;;;;;;;5.00;5.00;;;;;15.29;53.83;101469.66;5074076;27;47032;-72
2022/08/07 04:08:14;;;;;;;;;4.50;4.50;;;;;15.22;53.63;101462.03;5075707;28;45338;-71
2022/08/07 04:10:41;;;;;;;;;4.75;4.75;;;;;15.28;54.06;101470.59;5075947;27;45345;-72
2022/08/07 04:13:09;;;;;;;;;5.75;5.75;;;;;15.26;53.97;101460.97;5075579;27;45547;-70
2022/08/07 04:15:35;;;;;;;;;6.00;6.00;;;;;15.23;54.08;101467.28;5075238;27;48044;-72
2022/08/07 04:18:01;;;;;;;;;4.00;4.00;;;;;15.21;54.21;101462.97;5075395;28;45504;-72
2022/08/07 04:20:27;;;;;;;;;6.00;6.00;;;;;15.19;54.19;101455.09;5075466;27;45381;-73
2022/08/07 04:22:54;;;;;;;;;4.50;4.50;;;;;15.21;54.12;101469.13;5074287;27;45366;-78
2022/08/07 04:25:22;;;;;;;;;4.25;4.25;;;;;15.17;54.40;101465.75;5075900;28;46546;-79
2022/08/07 04:27:48;;;;;;;;;4.25;4.25;;;;;15.15;54.47;101461.47;5076186;27;45400;-78
2022/08/07 04:30:13;;;;;;;;;5.00;5.00;;;;;15.17;54.30;101468.41;5077523;28;45262;-73
2022/08/07 04:32:39;;;;;;;;;4.50;4.50;;;;;15.18;54.43;101464.81;5076326;27;45579;-75
2022/08/07 04:35:06;;;;;;;;;5.50;5.50;;;;;15.19;54.64;101465.69;5077697;27;45422;-75
2022/08/07 04:37:34;;;;;;;;;5.00;5.00;;;;;15.15;54.37;101464.13;5077885;27;45398;-76
2022/08/07 04:39:59;;;;;;;;;4.25;4.25;;;;;15.18;54.33;101470.13;5079122;27;45524;-75
2022/08/07 04:42:29;;;;;;;;;4.75;4.75;;;;;15.20;54.09;101467.41;5080325;27;45249;-79
2022/08/07 04:44:56;;;;;;;;;5.00;5.00;;;;;15.19;54.64;101471.00;5076057;27;47148;-79
2022/08/07 04:47:34;;;;;;;;;5.25;5.25;;;;;15.18;54.56;101467.47;5077390;27;45406;-80
2022/08/07 04:50:09;;;;;;;;;5.75;5.75;;;;;15.26;54.41;101477.75;5075905;27;45302;-76
2022/08/07 04:52:40;;;;;;;;;3.75;3.75;;;;;15.29;54.37;101477.59;5075474;27;45375;-71
2022/08/07 04:55:21;;;;;;;;;5.00;5.00;;;;;15.30;54.70;101474.03;5074783;27;46519;-75
2022/08/07 04:57:59;;;;;;;;;4.25;4.25;;;;;15.32;54.69;101476.59;5075492;27;45283;-75
2022/08/07 05:00:45;;;;;;;;;5.25;5.25;;;;;15.29;54.74;101477.59;5074843;27;45246;-75
2022/08/07 05:03:29;;;;;;;;;4.00;4.00;;;;;15.29;54.46;101480.25;5075560;28;45476;-75
2022/08/07 05:06:11;;;;;;;;;4.00;4.00;;;;;15.27;54.69;101482.13;5074896;28;46329;-71
2022/08/07 05:08:50;;;;;;;;;3.00;3.00;;;;;15.26;54.78;101491.00;5074845;27;45344;-71
2022/08/07 05:11:24;;;;;;;;;4.25;4.25;;;;;15.29;55.04;101492.63;5074981;27;45352;-77
2022/08/07 05:14:09;;;;;;;;;5.50;5.50;;;;;15.32;54.87;101496.00;5075114;27;45400;-76
2022/08/07 05:16:38;;;;;;;;;4.75;4.75;;;;;15.33;54.90;101504.81;5074416;28;45484;-76
2022/08/07 05:19:10;;;;;;;;;5.00;5.00;;;;;15.37;54.91;101498.44;5074858;27;45341;-73
2022/08/07 05:21:37;;;;;;;;;5.00;5.00;;;;;15.40;54.62;101508.06;5075037;27;45330;-76
2022/08/07 05:24:08;;;;;;;;;5.75;5.25;;;;;15.42;54.98;101501.78;5073806;28;45326;-76
2022/08/07 05:26:36;;;;;;;;;5.50;5.50;;;;;15.45;54.74;101508.72;5074818;27;47439;-76
2022/08/07 05:29:05;;;;;;;;;4.00;4.00;;;;;15.45;54.93;101514.00;5074816;27;45385;-72
2022/08/07 05:31:33;;;;;;;;;3.00;3.00;;;;;15.45;54.54;101514.88;5074778;27;45243;-75
2022/08/07 05:34:01;;;;;;;;;5.75;4.75;;;;;15.50;54.54;101513.81;5073788;28;45185;-72
2022/08/07 05:36:28;;;;;;;;;5.00;5.00;;;;;15.52;54.73;101519.91;5074485;27;45549;-73
2022/08/07 05:38:54;;;;;;;;;3.50;3.50;;;;;15.51;54.73;101513.72;5074748;27;45572;-74
2022/08/07 05:41:21;;;;;;;;;4.25;4.25;;;;;15.52;54.79;101517.25;5074840;27;45353;-76
2022/08/07 05:43:50;;;;;;;;;5.75;5.75;;;;;15.54;54.57;101512.75;5075194;27;45474;-76
2022/08/07 05:46:19;;;;;;;;;3.75;3.75;;;;;15.59;54.64;101521.34;5076659;27;45517;-76
2022/08/07 05:48:45;;;;;;;;;5.00;5.00;;;;;15.57;54.67;101510.78;5079705;27;45421;-75
2022/08/07 05:51:13;;;;;;;;;4.00;4.00;;;;;15.60;54.81;101518.59;5078681;27;45383;-76
2022/08/07 05:53:38;;;;;;;;;4.50;4.50;;;;;15.65;54.25;101517.53;5078614;28;45552;-76
2022/08/07 05:56:05;;;;;;;;;5.75;5.75;;;;;15.55;54.52;101495.91;5078295;27;45353;-77
2022/08/07 05:58:32;;;;;;;;;4.75;4.75;;;;;15.65;54.78;101521.06;5078825;27;45392;-72
2022/08/07 06:00:59;;;;;;;;;4.50;4.50;;;;;15.71;54.40;101525.19;5078978;27;45286;-75
2022/08/07 06:03:27;;;;;;;;;6.00;6.00;;;;;15.72;54.52;101521.59;5079577;28;45254;-75
2022/08/07 06:05:53;;;;;;;;;5.00;5.00;;;;;15.77;54.02;101524.91;5079889;27;45338;-73
2022/08/07 06:08:18;;;;;;;;;8.50;8.50;;;;;15.79;54.56;101515.09;5079226;27;45223;-74
2022/08/07 06:10:45;;;;;;;;;7.00;6.00;;;;;15.82;54.25;101514.94;5080134;27;45359;-74
2022/08/07 06:13:11;;;;;;;;;4.25;4.25;;;;;15.91;54.41;101519.88;5084468;27;45667;-80
2022/08/07 06:15:39;;;;;;;;;5.25;5.25;;;;;15.91;54.20;101511.03;5078906;27;45460;-73
2022/08/07 06:18:05;;;;;;;;;6.75;6.75;;;;;15.98;53.96;101522.22;5086337;27;45335;-75
2022/08/07 06:20:34;;;;;;;;;8.00;8.00;;;;;16.01;53.83;101516.75;5085191;27;45357;-77
2022/08/07 06:23:01;;;;;;;;;6.50;6.50;;;;;16.05;53.99;101513.88;5084424;27;45469;-77
2022/08/07 06:25:27;;;;;;;;;5.00;5.00;;;;;16.11;53.93;101518.03;5084592;27;46421;-77
2022/08/07 06:28:01;;;;;;;;;5.00;5.00;;;;;16.17;53.56;101522.16;5087955;27;45346;-76
2022/08/07 06:30:27;;;;;;;;;4.00;4.00;;;;;16.24;53.37;101523.59;5094477;27;45461;-74
2022/08/07 06:32:52;;;;;;;;;5.75;5.75;;;;;16.31;53.56;101518.84;5089331;27;45359;-74
2022/08/07 06:35:18;;;;;;;;;4.25;4.25;;;;;16.39;53.30;101521.09;5082088;27;46446;-73
2022/08/07 06:37:43;;;;;;;;;6.00;6.00;;;;;16.45;52.88;101526.97;5086957;27;44759;-74
2022/08/07 06:40:09;;;;;;;;;6.00;6.00;;;;;16.44;52.95;101513.81;5089264;27;45372;-71
2022/08/07 06:42:36;;;;;;;;;3.75;3.75;;;;;16.53;52.73;101512.47;5085297;27;45332;-74
2022/08/07 06:45:05;;;;;;;;;6.00;6.00;;;;;16.47;52.61;101490.59;5086964;27;45292;-74
2022/08/07 06:47:31;;;;;;;;;6.00;6.00;;;;;16.62;52.63;101512.88;5087592;27;45330;-78
2022/08/07 06:49:56;;;;;;;;;5.00;5.00;;;;;16.74;52.51;101514.03;5088858;28;45380;-77
2022/08/07 06:52:24;;;;;;;;;4.00;4.00;;;;;16.87;52.55;101524.00;5085145;27;45492;-81
2022/08/07 06:54:51;;;;;;;;;7.75;7.75;;;;;16.98;52.26;101512.88;5082331;27;45656;-72
2022/08/07 06:57:19;;;;;;;;;5.50;5.50;;;;;17.06;51.89;101511.53;5080051;27;45341;-74
2022/08/07 06:59:46;;;;;;;;;6.25;6.25;;;;;17.16;52.10;101519.88;5077678;27;45349;-71
2022/08/07 07:02:17;;;;;;;;;76.75;68.50;;;;;17.25;51.84;101515.00;5077999;27;45580;-76
2022/08/07 07:04:44;;;;;;;;;5.50;5.50;;;;;17.34;51.37;101512.72;5077381;27;45612;-73
2022/08/07 07:07:10;;;;;;;;;5.00;5.00;;;;;17.44;51.05;101517.53;5076309;27;45263;-81
2022/08/07 07:09:37;;;;;;;;;5.00;5.00;;;;;17.52;50.60;101513.53;5076385;27;45345;-75
2022/08/07 07:12:05;;;;;;;;;5.00;5.00;;;;;17.64;50.60;101524.44;5077415;28;45319;-74
2022/08/07 07:15:02;;;;;;;;;4.25;4.25;;;;;17.76;50.51;101522.88;5076091;27;46271;-73
2022/08/07 07:17:53;;;;;;;;;8.25;6.50;;;;;17.84;49.78;101523.31;5076548;27;45276;-74
2022/08/07 07:20:24;;;;;;;;;6.25;6.25;;;;;17.93;50.18;101528.09;5075677;27;45410;-75
2022/08/07 07:22:51;;;;;;;;;3.75;3.75;;;;;18.05;50.15;101534.59;5078522;27;45309;-76
2022/08/07 07:25:18;;;;;;;;;5.00;5.00;;;;;18.16;49.56;101523.34;5076501;27;46240;-76
2022/08/07 07:27:54;;;;;;;;;4.00;4.00;;;;;18.27;49.42;101529.84;5076745;28;45397;-72
2022/08/07 07:30:24;;;;;;;;;3.25;3.25;;;;;18.37;49.39;101531.03;5076752;27;45460;-71
2022/08/07 07:32:52;;;;;;;;;4.75;4.75;;;;;18.36;49.11;101514.19;5076858;27;45212;-73
2022/08/07 07:35:18;;;;;;;;;3.50;3.50;;;;;18.50;48.72;101518.72;5075912;27;46299;-77
2022/08/07 07:37:47;;;;;;;;;3.75;3.75;;;;;18.57;48.54;101515.69;5075660;28;45411;-75
2022/08/07 07:40:17;;;;;;;;;4.00;4.00;;;;;18.68;48.13;101521.22;5076267;27;45361;-76
2022/08/07 07:42:44;;;;;;;;;4.00;4.00;;;;;18.76;48.56;101520.78;5076602;27;45331;-75
2022/08/07 07:45:11;;;;;;;;;2.75;2.75;;;;;18.88;47.73;101517.38;5074484;27;47142;-74
2022/08/07 07:47:41;;;;;;;;;3.00;3.00;;;;;18.98;47.39;101512.34;5076043;27;45520;-74
2022/08/07 07:50:10;;;;;;;;;3.00;3.00;;;;;19.08;47.64;101510.00;5076303;28;45310;-76
2022/08/07 07:52:37;;;;;;;;;3.25;3.25;;;;;19.20;46.89;101519.06;5076331;27;45195;-75
2022/08/07 07:55:04;;;;;;;;;3.25;3.25;;;;;19.33;47.20;101516.47;5075910;27;45445;-78
2022/08/07 07:57:32;;;;;;;;;1.50;1.50;;;;;19.44;46.76;101516.66;5075968;27;45427;-73
2022/08/07 08:00:00;;;;;;;;;3.50;3.50;;;;;19.50;46.37;101508.25;5075547;27;45420;-76
2022/08/07 08:02:29;;;;;;;;;2.00;2.00;;;;;19.63;46.30;101510.19;5076423;27;45219;-72
2022/08/07 08:04:55;;;;;;;;;2.00;2.00;;;;;19.68;45.77;101508.06;5075429;28;47747;-75
2022/08/07 08:07:23;;;;;;;;;1.00;1.00;;;;;19.81;45.29;101511.66;5076187;27;45397;-75
2022/08/07 08:09:51;;;;;;;;;2.00;2.00;;;;;19.89;44.83;101496.94;5075033;27;45499;-75
2022/08/07 08:12:17;;;;;;;;;2.00;2.00;;;;;20.00;42.93;101499.81;5076327;27;45612;-75
2022/08/07 08:14:42;;;;;;;;;1.50;1.50;;;;;20.05;43.53;101504.81;5075668;27;46666;-75
2022/08/07 08:17:11;;;;;;;;;2.50;2.50;;;;;20.14;44.16;101504.22;5075708;27;45456;-74
2022/08/07 08:19:38;;;;;;;;;4.00;4.00;;;;;20.22;44.00;101499.25;5076336;27;45387;-72
2022/08/07 08:27:39;;;;;;;;;5.50;5.50;;;;;20.68;42.88;101491.75;5075493;28;45177;-73
2022/08/07 08:30:10;;;;;;;;;2.00;2.00;;;;;20.76;42.48;101501.94;5075331;27;45321;-73
2022/08/07 08:32:40;;;;;;;;;1.25;1.25;;;;;20.86;42.60;101506.53;5075706;27;45326;-74
2022/08/07 08:35:09;;;;;;;;;1.75;1.75;;;;;20.95;41.47;101496.16;5074708;27;46721;-77
2022/08/07 08:37:36;;;;;;;;;1.50;1.50;;;;;20.99;42.12;101490.50;5074830;27;45381;-76
2022/08/07 08:40:09;;;;;;;;;1.25;1.25;;;;;21.07;41.02;101483.75;5075066;27;45524;-79
2022/08/07 08:42:51;;;;;;;;;2.00;2.00;;;;;21.13;40.28;101497.53;5075680;27;45279;-77
2022/08/07 08:45:42;;;;;;;;;2.00;2.00;;;;;21.20;40.75;101486.41;5075147;27;45455;-78
2022/08/07 08:48:31;;;;;;;;;1.00;1.00;;;;;21.30;40.26;101482.97;5075559;27;45359;-77
2022/08/07 08:51:05;;;;;;;;;4.00;4.00;;;;;21.33;39.40;101476.56;5075733;28;45351;-79
2022/08/07 08:53:41;;;;;;;;;3.00;3.00;;;;;21.45;39.98;101480.16;5075775;28;45530;-75
2022/08/07 08:56:13;;;;;;;;;2.25;2.25;;;;;21.55;39.62;101480.38;5075176;27;45528;-77
2022/08/07 08:59:00;;;;;;;;;1.50;1.50;;;;;21.68;39.74;101477.66;5075032;27;45855;-75
2022/08/07 09:01:48;;;;;;;;;2.50;2.50;;;;;21.76;39.10;101472.63;5075525;27;45443;-74
2022/08/07 09:04:21;;;;;;;;;1.00;1.00;;;;;21.82;38.38;101472.16;5075694;27;45430;-78
2022/08/07 09:06:58;;;;;;;;;1.50;1.50;;;;;21.95;38.68;101472.09;5073848;27;46411;-78
2022/08/07 09:09:43;;;;;;;;;1.00;1.00;;;;;22.13;37.47;101485.06;5074756;27;45357;-70
2022/08/07 09:12:31;;;;;;;;;1.00;1.00;;;;;22.21;37.63;101471.97;5074986;27;45373;-75
2022/08/07 09:15:17;;;;;;;;;1.00;1.00;;;;;22.34;37.41;101479.94;5075675;28;45279;-75
2022/08/07 09:18:10;;;;;;;;;1.00;1.00;;;;;22.48;37.62;101492.31;5074899;28;45297;-76
2022/08/07 09:20:50;;;;;;;;;2.00;2.00;;;;;22.55;37.14;101484.66;5077127;27;45197;-73
2022/08/07 09:23:50;;;;;;;;;2.00;2.00;;;;;22.63;36.22;101484.06;5078547;27;46018;-72
2022/08/07 09:26:44;;;;;;;;;2.00;2.00;;;;;22.68;35.88;101487.25;5080632;27;45235;-71
2022/08/07 09:29:30;;;;;;;;;1.50;1.50;;;;;22.74;36.55;101487.59;5086946;28;45372;-74
2022/08/07 09:32:24;;;;;;;;;1.00;1.00;;;;;22.68;35.82;101468.47;5079977;27;45303;-71
2022/08/07 09:34:55;;;;;;;;;1.75;1.75;;;;;22.77;35.31;101486.53;5079158;27;45393;-74
2022/08/07 09:37:51;;;;;;;;;1.00;1.00;;;;;22.73;35.62;101485.91;5077018;27;45477;-73
2022/08/07 09:40:29;;;;;;;;;1.00;1.00;;;;;22.81;35.87;101471.91;5066169;27;46471;-74
2022/08/07 09:43:05;;;;;;;;;2.00;2.00;;;;;22.87;35.22;101479.47;5078425;27;45324;-74
2022/08/07 09:45:56;;;;;;;;;2.00;2.00;;;;;22.96;35.79;101477.03;5078971;27;45352;-74
2022/08/07 09:48:39;;;;;;;;;2.00;2.00;;;;;23.02;35.80;101487.28;5077261;28;45528;-73
2022/08/07 09:51:21;;;;;;;;;1.75;1.75;;;;;23.05;34.96;101473.63;5078105;28;47256;-73
2022/08/07 09:53:54;;;;;;;;;3.75;3.75;;;;;23.13;35.00;101471.19;5078273;27;45461;-74
2022/08/07 09:56:22;;;;;;;;;2.00;2.00;;;;;23.17;34.64;101469.97;5079913;27;45341;-78
2022/08/07 09:59:07;;;;;;;;;1.00;1.00;;;;;23.27;34.82;101471.94;5080125;27;45486;-78
2022/08/07 10:02:07;;;;;;;;;2.25;2.25;;;;;23.31;34.23;101465.34;5080010;28;46180;-71
2022/08/07 10:04:58;;;;;;;;;2.50;2.50;;;;;23.30;34.65;101466.31;5079295;27;45431;-71
2022/08/07 10:08:14;;;;;;;;;1.75;1.75;;;;;23.38;33.74;101461.22;5079950;27;45415;-77
2022/08/07 10:10:56;;;;;;;;;2.00;2.00;;;;;23.47;34.12;101457.78;5078978;27;45439;-72
2022/08/07 10:13:56;;;;;;;;;3.25;3.25;;;;;23.55;33.46;101456.31;5078217;27;46452;-75
2022/08/07 10:16:59;;;;;;;;;4.25;4.25;;;;;23.67;33.70;101446.38;5078527;28;45407;-75
2022/08/07 10:19:45;;;;;;;;;1.50;1.50;;;;;23.79;34.00;101448.03;5080108;27;45351;-71
2022/08/07 10:22:37;;;;;;;;;2.00;2.00;;;;;23.96;32.67;101441.25;5077734;28;45474;-75
2022/08/07 10:25:26;;;;;;;;;3.75;3.75;;;;;24.06;33.49;101446.75;5078523;27;45207;-73
2022/08/07 10:28:09;;;;;;;;;3.00;3.00;;;;;24.22;33.06;101438.22;5077674;27;45452;-79
2022/08/07 10:30:50;;;;;;;;;2.00;2.00;;;;;24.30;33.48;101446.50;5077303;27;45286;-73
2022/08/07 10:33:29;;;;;;;;;1.00;1.00;;;;;24.40;33.58;101435.81;5077196;27;45404;-76
2022/08/07 10:36:16;;;;;;;;;3.75;3.75;;;;;24.47;32.13;101441.53;5077247;27;45465;-72
2022/08/07 10:38:59;;;;;;;;;3.00;3.00;;;;;24.50;32.31;101446.66;5077045;27;45323;-72
2022/08/07 10:41:32;;;;;;;;;3.00;3.00;;;;;24.59;32.62;101434.22;5077661;27;45270;-76
2022/08/07 10:44:11;;;;;;;;;3.00;3.00;;;;;24.62;31.32;101437.53;5077320;27;45533;-76
2022/08/07 10:47:12;;;;;;;;;3.00;3.00;;;;;24.59;32.08;101432.41;5079124;27;47208;-74
2022/08/07 10:49:47;;;;;;;;;2.00;2.00;;;;;24.64;31.87;101432.00;5078435;27;45308;-73
2022/08/07 10:52:24;;;;;;;;;3.25;3.25;;;;;24.69;32.30;101432.44;5077533;27;45274;-74
2022/08/07 10:54:56;;;;;;;;;5.00;5.00;;;;;24.73;32.24;101427.66;5077843;27;45405;-74
2022/08/07 10:57:37;;;;;;;;;1.75;1.75;;;;;24.86;31.97;101419.38;5076737;27;46379;-71
2022/08/07 11:00:11;;;;;;;;;3.00;3.00;;;;;24.97;31.28;101418.44;5077088;27;45356;-71
2022/08/07 11:03:04;;;;;;;;;3.00;3.00;;;;;25.00;32.05;101423.56;5077062;27;45504;-71
2022/08/07 11:05:44;;;;;;;;;5.00;5.00;;;;;25.04;32.28;101407.00;5077328;27;45396;-70
2022/08/07 11:08:19;;;;;;;;;1.75;1.75;;;;;24.98;31.76;101407.56;5076634;27;46175;-72
2022/08/07 11:10:58;;;;;;;;;4.00;4.00;;;;;25.00;31.46;101407.41;5076379;27;45370;-73
2022/08/07 11:13:50;;;;;;;;;2.00;2.00;;;;;25.04;32.03;101403.44;5076239;27;45391;-77
2022/08/07 11:16:21;;;;;;;;;2.75;2.75;;;;;25.16;32.54;101405.03;5077154;27;45473;-75
2022/08/07 11:19:02;;;;;;;;;3.00;3.00;;;;;25.22;31.41;101409.03;5076729;27;45444;-80
2022/08/07 11:21:41;;;;;;;;;3.00;3.00;;;;;25.21;32.08;101396.56;5075582;27;45280;-73
2022/08/07 11:24:34;;;;;;;;;2.25;2.25;;;;;25.25;31.89;101398.00;5077006;28;45256;-73
2022/08/07 11:27:17;;;;;;;;;4.00;4.00;;;;;25.29;32.31;101387.78;5075651;27;45241;-75
2022/08/07 11:30:01;;;;;;;;;2.50;2.50;;;;;25.22;31.14;101384.81;5076883;27;45342;-72
2022/08/07 11:32:37;;;;;;;;;4.50;4.50;;;;;25.23;31.35;101384.66;5076944;27;45368;-74
2022/08/07 11:35:17;;;;;;;;;3.00;3.00;;;;;25.31;31.83;101383.09;5077512;27;45366;-71
2022/08/07 11:37:52;;;;;;;;;4.00;4.00;;;;;25.33;31.74;101373.91;5079776;27;45341;-73
2022/08/07 11:40:51;;;;;;;;;4.00;4.00;;;;;25.34;31.08;101388.22;5077738;27;45552;-77
2022/08/07 11:43:25;;;;;;;;;5.50;5.50;;;;;25.38;31.88;101368.97;5075123;27;45354;-78
2022/08/07 11:46:28;;;;;;;;;3.75;3.75;;;;;25.48;32.25;101369.03;5076886;27;45318;-73
2022/08/07 11:49:04;;;;;;;;;1.50;1.50;;;;;25.50;30.54;101366.16;5076736;28;45603;-73
2022/08/07 11:52:07;;;;;;;;;3.75;3.75;;;;;25.51;30.59;101371.44;5076134;27;45447;-78